LIPQ/TRS METAR and TAF weather

Enter ICAO airport designator
Station Type Date Time Source
LIPQ METAR 2020/07/02 18:20 UTC NOAA

LIPQ 021820Z AUTO 32004KT 9999 NCD 25/19 Q1009


Station Type Date Time Source
LIPQ Decoded METAR 2020/07/02 18:20 UTC NOAA

Ronchi Dei Legionari, Italy (LIPQ) 45-49N 013-29E 12M
Jul 02, 2020 - 02:20 PM EDT / 2020.07.02 1820 UTC
Wind: from the NW (320 degrees) at 5 MPH (4 KT):0
Visibility: greater than 7 mile(s):0
Temperature: 77 F (25 C)
Dew Point: 66 F (19 C)
Relative Humidity: 69%
Pressure (altimeter): 29.80 in. Hg (1009 hPa)
ob: LIPQ 021820Z AUTO 32004KT 9999 NCD 25/19 Q1009
cycle: 18

Station Type Date Time Source
LIPQ TAF 2020/07/02 18:21 UTC NOAA

TAF LIPQ 021700Z 0218/0318 VRB05KT 9999 SCT040
TEMPO 0304/0310 TSRA
BECMG 0306/0308 07015G25KT

Example: see airport list